オウル空港の過去48時間の天気

オウル空港 (Oulu)

現在時刻: 1/19 13:29 EET (1/19 11:29 UTC) 以下の時間は現地時間です。

過去48時間のMETAR気象情報
時間 風向 風速(m/s) 視程 気温(℃) 湿度(%) 気圧(hPa) 天気現象
19 12:50 東南東 2 7000m -15 85 1000 弱い雪
19 12:20 東南東 2 2600m -16 92 1000 弱い雪
19 11:50 東南東 2 3600m -16 85 999 弱い雪
19 11:20 南東 2 1900m -16 85 999 弱い雪
19 10:50 南東 3 3900m -17 84 999 弱い雪
19 10:20 東南東 2 6000m -17 84 999 弱い雪
19 09:50 南東 3 5000m -18 84 999 弱い雪
19 09:20 不定 1 2200m -17 84 999 弱い雪
19 08:50 南南東 2 7000m -18 84 999 弱い雪
19 08:20 南南東 2 10km以上 -19 92 999 弱い雪
19 07:50 南東 3 10km以上 -19 84 999 弱い雪
19 07:20 南東 2 6000m -20 92 999 弱い雪
19 06:50 南東 2 1700m -19 84 999 強い雪
19 06:20 南南東 2 10km以上 -19 84 999 弱い雪
19 05:50 南東 3 10km以上 -20 84 999 弱い雪
19 05:20 南東 1 10km以上 -19 84 999 弱い雪
19 04:50 南南東 2 3500m -18 84 999 弱い雪
19 04:20 南東 3 9000m -18 84 999 弱い雪
19 03:50 南東 3 6000m -19 84 999 弱い雪
19 03:20 南東 1 2100m -20 92 999 弱い雪
19 02:50 東南東 1 6000m -19 84 999 弱い雪
19 02:20 東南東 2 2600m -19 84 999
19 01:50 南南東 2 1800m -19 84 999 強い雪
19 01:20 南東 2 1300m -19 84 999 強い雪
19 00:50 南東 2 1000m -19 84 999 強い雪
19 00:20 南南東 1 1000m -19 84 999 強い雪
18 23:50 不定 1 1200m -19 84 999 強い雪
18 23:20 南南東 2 800m -19 84 999 強い雪
18 22:50 南南東 1 900m -19 84 999 強い雪
18 22:20 南東 2 1000m -19 92 999
18 21:50 西 2 1000m -17 84 998 弱い雪
18 21:20 西 2 700m -18 84 998 氷霧 弱い雪
18 20:50 西南西 2 900m -19 92 998 弱い雪
18 20:20 不定 1 6000m -22 84 998 弱い雪
18 19:50 西南西 1 8000m -21 84 998 弱い雪
18 19:20 静穏 0 2500m -21 84 998 弱い雪
18 18:50 西南西 1 10km以上 -22 84 997
18 18:20 西 1 10km以上 -20 84 997
18 17:50 静穏 0 10km以上 -21 84 997 弱い雪
18 17:20 北西 1 10km以上 -19 84 997 弱い雪
18 16:50 北西 2 10km以上 -19 84 997
18 16:20 西北西 3 10km以上 -20 84 996 弱い雪
18 15:50 西 1 10km以上 -20 92 996 弱い雪
18 15:20 不定 1 10km以上 -19 84 996 弱い雪
18 14:50 西南西 1 10km以上 -19 84 996
18 14:20 不定 1 10km以上 -18 92 995 弱い雪
18 13:50 不定 1 10km以上 -16 92 995 弱い雪
18 13:20 不定 1 10km以上 -15 85 995 弱い雪
18 12:50 西 2 10km以上 -15 85 994 弱い雪
18 12:20 静穏 0 10km以上 -16 92 994
18 11:50 西北西 2 10km以上 -16 85 994 弱い雪
18 11:20 西 1 10km以上 -18 84 994 弱い雪
18 10:50 不定 1 10km以上 -19 84 993 弱い雪
18 10:20 西北西 1 10km以上 -20 84 993 弱い雪
18 09:50 不定 1 10km以上 -21 84 993 弱い雪
18 09:20 北西 2 10km以上 -20 84 992 弱い雪
18 08:50 西北西 1 10km以上 -20 84 992 弱い雪
18 08:20 北西 1 9000m -20 84 992 弱い雪
18 07:50 北西 1 7000m -19 84 991 弱い雪
18 07:20 西北西 2 7000m -19 92 991 弱い雪
18 06:50 北西 1 5000m -18 84 991 弱い雪
18 06:20 静穏 0 8000m -18 84 991 弱い雪
18 05:50 北北東 1 10km以上 -19 84 990 弱い雪
18 05:20 北西 1 5000m -19 92 990 弱い雪
18 04:50 不定 1 6000m -18 84 990 弱い雪
18 04:20 不定 1 10km以上 -19 92 990 弱い雪
18 03:50 西北西 1 10km以上 -19 84 989 弱い雪
18 03:20 静穏 0 10km以上 -19 84 989 弱い雪
18 02:50 静穏 0 10km以上 -19 84 989
18 02:20 西北西 1 10km以上 -19 84 989 弱い雪
18 01:50 北西 1 9000m -19 84 989 弱い雪
18 01:20 不定 1 9000m -19 84 988 弱い雪
18 00:50 北西 2 6000m -20 92 988 弱い雪
18 00:20 不定 1 3200m -20 84 988
17 23:50 西北西 1 3900m -20 84 988
17 23:20 静穏 0 3400m -21 84 988 弱い雪
17 22:50 静穏 0 4800m -21 84 988 弱い雪
17 22:20 静穏 0 2800m -22 84 987 弱い雪
17 21:50 不定 1 2000m -22 84 987
17 21:20 北西 2 3000m -23 84 987 弱い雪
17 20:50 北西 1 2800m -23 84 987 弱い雪
17 20:20 北北西 2 10km以上 -23 84 987 弱い雪
17 19:50 西北西 2 10km以上 -23 84 987 弱い雪
17 19:20 北西 2 1800m -23 84 987
17 18:50 北西 1 1100m -22 84 987 強い雪
17 18:20 北西 2 10km以上 -22 84 987 弱い雪
17 17:50 北西 2 10km以上 -22 77 987 弱い雪
17 17:20 北西 2 10km以上 -22 84 987 弱い雪
17 16:50 不定 1 4400m -22 84 987 弱い雪
17 16:20 北西 2 3000m -21 84 987 弱い雪
17 15:50 北西 2 10km以上 -20 84 987 弱い雪
17 15:20 北西 2 10km以上 -20 84 987 弱い雪
17 14:50 北北西 2 10km以上 -19 84 987 弱い雪
17 14:20 北北西 2 10km以上 -18 84 987 弱い雪
17 13:50 北北西 3 10km以上 -18 92 987 弱い雪
EFOU 191050Z AUTO 11003KT 080V140 7000 -SN FEW031/// OVC060/// M15/M17 Q1000
EFOU 191020Z AUTO 12003KT 2600 -SN FEW025/// OVC029/// M16/M17 Q1000
EFOU 190950Z AUTO 12004KT 3600 -SN BKN028/// OVC033/// M16/M18 Q0999
EFOU 190920Z AUTO 14004KT 1900 -SN OVC025/// M16/M18 Q0999
EFOU 190850Z AUTO 13005KT 3900 -SN OVC031/// M17/M19 Q0999
EFOU 190820Z AUTO 12004KT 6000 -SN FEW031/// BKN049/// BKN079/// M17/M19 Q0999
EFOU 190750Z AUTO 13006KT 5000 -SN SCT022/// BKN032/// BKN078/// M18/M20 Q0999
EFOU 190720Z AUTO VRB02KT 2200 -SN FEW020/// BKN024/// OVC034/// M17/M19 Q0999
EFOU 190650Z AUTO 15003KT 7000 -SN FEW020/// SCT043/// OVC075/// M18/M20 Q0999
EFOU 190620Z AUTO 15003KT 9999 -SN FEW049/// BKN068/// M19/M20 Q0999
EFOU 190550Z AUTO 13005KT 9999 -SN FEW020/// OVC069/// M19/M21 Q0999
EFOU 190520Z AUTO 13004KT 6000 -SN FEW003/// SCT019/// BKN070/// M20/M21 Q0999
EFOU 190450Z AUTO 14004KT 1700 1100 R12/P2000 +SN BKN003 OVC019 M19/M21 Q0999
EFOU 190420Z AUTO 15003KT 9999 -SN SCT003/// BKN072/// M19/M21 Q0999
EFOU 190350Z AUTO 13005KT 9999 -SN FEW074/// M20/M22 Q0999
EFOU 190320Z AUTO 14002KT 9999 -SN FEW080/// M19/M21 Q0999
EFOU 190250Z AUTO 16003KT 3500 -SN SCT017/// BKN021/// M18/M20 Q0999
EFOU 190220Z AUTO 14005KT 9000 -SN FEW005/// BKN016/// BKN019/// M18/M20 Q0999
EFOU 190150Z AUTO 14006KT 6000 -SN FEW006/// BKN016/// M19/M21 Q0999
EFOU 190120Z AUTO 13002KT 2100 -SN BKN007/// OVC011/// M20/M21 Q0999
EFOU 190050Z AUTO 12002KT 6000 -SN BKN007/// BKN061/// M19/M21 Q0999
EFOU 190020Z AUTO 12003KT 2600 SN OVC007/// M19/M21 Q0999
EFOU 182350Z AUTO 16003KT 1800 1100 R12/P2000 +SN SCT004 OVC006 M19/M21 Q0999
EFOU 182320Z AUTO 14004KT 1300 1200 R12/P2000 +SN OVC006 M19/M21 Q0999
EFOU 182250Z AUTO 13003KT 1000 0700 R12/1400U +SN OVC004 M19/M21 Q0999
EFOU 182220Z AUTO 16002KT 1000 0900 R12/1500N +SN OVC002 M19/M21 Q0999
EFOU 182150Z AUTO VRB01KT 1200 0700 R12/1600U +SN OVC002/// M19/M21 Q0999
EFOU 182120Z AUTO 15003KT 0800 0700 R12/1700U +SN OVC002 M19/M21 Q0999
EFOU 182050Z AUTO 15002KT 0900 R12/1800D +SN BKN002 OVC004 M19/M21 Q0999
EFOU 182020Z AUTO 14003KT 1000 0750 R12/1400D SN VV002 M19/M20 Q0999
EFOU 181950Z AUTO 26003KT 1000 0550 R12/1500U -SN VV002 M17/M19 Q0998
EFOU 181920Z AUTO 26004KT 0700 0500 R12/1000D -SN FZFG VV001 M18/M20 Q0998
EFOU 181850Z AUTO 25003KT 0900 R12/1100D -SN VV002 M19/M20 Q0998
EFOU 181820Z AUTO VRB01KT 6000 -SN VV002 M22/M24 Q0998
EFOU 181750Z AUTO 25002KT 8000 -SN BKN001/// BKN004/// M21/M23 Q0998
EFOU 181720Z AUTO 00000KT 2500 1200 R12/P2000 -SN SCT001 SCT065 M21/M23 Q0998
EFOU 181650Z AUTO 25001KT 9999 FEW065/// M22/M24 Q0997
EFOU 181620Z AUTO 26002KT CAVOK M20/M22 Q0997
EFOU 181550Z AUTO 00000KT 9999 0450 R30/P2000 -SN NCD M21/M23 Q0997
EFOU 181520Z AUTO 31002KT 9999 -SN FEW002/// SCT044/// M19/M21 Q0997
EFOU 181450Z AUTO 31004KT 9999 OVC044/// M19/M21 Q0997
EFOU 181420Z AUTO 30006KT 9999 -SN SCT044/// M20/M22 Q0996
EFOU 181350Z AUTO 27002KT 9999 -SN FEW043/// M20/M21 Q0996
EFOU 181320Z AUTO VRB02KT 9999 -SN NCD M19/M21 Q0996
EFOU 181250Z AUTO 25002KT CAVOK M19/M21 Q0996
EFOU 181220Z AUTO VRB02KT 9999 -SN NCD M18/M19 Q0995
EFOU 181150Z AUTO VRB01KT 9999 -SN NCD M16/M17 Q0995
EFOU 181120Z AUTO VRB02KT 9999 -SN BKN043/// M15/M17 Q0995
EFOU 181050Z AUTO 28004KT 9999 -SN FEW035/// BKN042/// M15/M17 Q0994
EFOU 181020Z AUTO 00000KT 9999 OVC043/// M16/M17 Q0994
EFOU 180950Z AUTO 30004KT 9999 -SN FEW002/// OVC043/// M16/M18 Q0994
EFOU 180920Z AUTO 27002KT 9999 -SN OVC042/// M18/M20 Q0994
EFOU 180850Z AUTO VRB02KT 9999 1400 R12/P2000 -SN OVC042 M19/M21 Q0993
EFOU 180820Z AUTO 30002KT 9999 -SN BKN042/// M20/M22 Q0993
EFOU 180750Z AUTO VRB02KT 9999 -SN FEW002/// M21/M23 Q0993
EFOU 180720Z AUTO 31003KT 9999 -SN FEW077/// M20/M22 Q0992
EFOU 180650Z AUTO 30002KT 9999 -SN SCT077/// M20/M22 Q0992
EFOU 180620Z AUTO 32002KT 9000 -SN FEW029/// BKN043/// M20/M22 Q0992
EFOU 180550Z AUTO 32002KT 7000 -SN FEW031/// SCT037/// M19/M21 Q0991
EFOU 180520Z AUTO 29003KT 7000 -SN FEW026/// M19/M20 Q0991
EFOU 180450Z AUTO 32002KT 5000 -SN FEW037/// OVC081/// M18/M20 Q0991
EFOU 180420Z AUTO 00000KT 8000 -SN FEW032/// BKN046/// OVC081/// M18/M20 Q0991
EFOU 180350Z AUTO 02002KT 9999 -SN FEW005/// BKN086/// M19/M21 Q0990
EFOU 180320Z AUTO 32002KT 5000 -SN FEW006/// SCT030/// BKN035/// M19/M20 Q0990
EFOU 180250Z AUTO VRB02KT 6000 -SN SCT032/// BKN040/// OVC086/// M18/M20 Q0990
EFOU 180220Z AUTO VRB02KT 9999 -SN FEW037/// OVC083/// M19/M20 Q0990
EFOU 180150Z AUTO 29001KT 9999 -SN FEW055/// OVC081/// M19/M21 Q0989
EFOU 180120Z AUTO 00000KT 9999 -SN FEW003/// BKN080/// M19/M21 Q0989
EFOU 180050Z AUTO 00000KT 9999 OVC083/// M19/M21 Q0989
EFOU 180020Z AUTO 30002KT 9999 -SN FEW007/// SCT046/// BKN088/// M19/M21 Q0989
EFOU 172350Z AUTO 32002KT 9000 -SN SCT034/// BKN048/// BKN094/// M19/M21 Q0989
EFOU 172320Z AUTO VRB02KT 9000 -SN FEW003/// BKN050/// OVC093/// M19/M21 Q0988
EFOU 172250Z AUTO 32003KT 6000 -SN FEW004/// SCT011/// OVC087/// M20/M21 Q0988
EFOU 172220Z AUTO VRB02KT 3200 SN FEW005/// OVC090/// M20/M22 Q0988
EFOU 172150Z AUTO 30002KT 3900 SN FEW036/// OVC090/// M20/M22 Q0988
EFOU 172120Z AUTO 00000KT 3400 -SN FEW006/// OVC090/// M21/M23 Q0988
EFOU 172050Z AUTO 00000KT 4800 -SN BKN036/// OVC089/// M21/M23 Q0988
EFOU 172020Z AUTO 00000KT 2800 -SN BKN033/// OVC039/// M22/M24 Q0987
EFOU 171950Z AUTO VRB01KT 2000 SN FEW024/// BKN032/// BKN040/// M22/M24 Q0987
EFOU 171920Z AUTO 32003KT 3000 -SN SCT027/// BKN033/// BKN080/// M23/M25 Q0987
EFOU 171850Z AUTO 31002KT 2800 -SN BKN078/// M23/M25 Q0987
EFOU 171820Z AUTO 33004KT 9999 -SN FEW023/// M23/M25 Q0987
EFOU 171750Z AUTO 30004KT 9999 4000 -SN BKN023 M23/M25 Q0987
EFOU 171720Z AUTO 31004KT 1800 0600 R30/2000D SN FEW005 M23/M25 Q0987
EFOU 171650Z AUTO 31002KT 1100 R30/1300D +SN BKN006 M22/M24 Q0987
EFOU 171620Z AUTO 31003KT 270V340 9999 -SN FEW001/// M22/M24 Q0987
EFOU 171550Z AUTO 32003KT 290V350 9999 -SN FEW001/// M22/M25 Q0987
EFOU 171520Z AUTO 31004KT 9999 -SN FEW002/// SCT021/// M22/M24 Q0987
EFOU 171450Z AUTO VRB02KT 4400 -SN FEW003/// OVC021/// M22/M24 Q0987
EFOU 171420Z AUTO 31003KT 3000 -SN FEW001/// BKN020/// M21/M23 Q0987
EFOU 171350Z AUTO 32003KT 9999 -SN FEW002/// M20/M22 Q0987
EFOU 171320Z AUTO 32003KT 9999 -SN NSC M20/M22 Q0987
EFOU 171250Z AUTO 33003KT 300V360 9999 -SN NSC M19/M21 Q0987
EFOU 171220Z AUTO 33003KT 310V020 9999 -SN NSC M18/M20 Q0987
EFOU 171150Z AUTO 33005KT 9999 -SN FEW013/// M18/M19 Q0987